sensor_id;sensor_type;location;lat;lon;timestamp;P1;durP1;ratioP1;P2;durP2;ratioP2
64598;SDS011;51008;51.504;11.548;2022-10-18T00:00:59;12.88;;;4.72;;
64598;SDS011;51008;51.504;11.548;2022-10-18T00:06:00;13.45;;;4.82;;
64598;SDS011;51008;51.504;11.548;2022-10-18T00:11:01;8.95;;;4.65;;
64598;SDS011;51008;51.504;11.548;2022-10-18T00:16:03;9.73;;;4.53;;
64598;SDS011;51008;51.504;11.548;2022-10-18T00:21:10;10.07;;;5.00;;
64598;SDS011;51008;51.504;11.548;2022-10-18T00:26:14;10.88;;;4.90;;
64598;SDS011;51008;51.504;11.548;2022-10-18T00:31:19;8.27;;;5.38;;
64598;SDS011;51008;51.504;11.548;2022-10-18T00:36:20;10.25;;;5.10;;
64598;SDS011;51008;51.504;11.548;2022-10-18T00:41:23;14.10;;;5.22;;
64598;SDS011;51008;51.504;11.548;2022-10-18T00:46:29;11.68;;;5.47;;
64598;SDS011;51008;51.504;11.548;2022-10-18T00:51:33;11.90;;;6.68;;
64598;SDS011;51008;51.504;11.548;2022-10-18T00:56:39;19.27;;;7.93;;
64598;SDS011;51008;51.504;11.548;2022-10-18T01:01:41;13.50;;;7.60;;
64598;SDS011;51008;51.504;11.548;2022-10-18T01:07:00;14.85;;;7.32;;
64598;SDS011;51008;51.504;11.548;2022-10-18T01:12:23;31.38;;;8.93;;
64598;SDS011;51008;51.504;11.548;2022-10-18T01:23:48;14.27;;;9.05;;
64598;SDS011;51008;51.504;11.548;2022-10-18T01:33:59;13.63;;;8.23;;
64598;SDS011;51008;51.504;11.548;2022-10-18T01:39:05;16.02;;;9.73;;
64598;SDS011;51008;51.504;11.548;2022-10-18T01:44:11;16.15;;;8.40;;
64598;SDS011;51008;51.504;11.548;2022-10-18T01:49:14;24.48;;;11.90;;
64598;SDS011;51008;51.504;11.548;2022-10-18T01:54:17;26.45;;;15.32;;
64598;SDS011;51008;51.504;11.548;2022-10-18T02:04:41;23.83;;;13.43;;
64598;SDS011;51008;51.504;11.548;2022-10-18T02:09:56;20.27;;;11.88;;
64598;SDS011;51008;51.504;11.548;2022-10-18T02:15:12;19.77;;;12.63;;
64598;SDS011;51008;51.504;11.548;2022-10-18T02:20:17;23.67;;;11.77;;
64598;SDS011;51008;51.504;11.548;2022-10-18T02:25:21;19.63;;;11.90;;
64598;SDS011;51008;51.504;11.548;2022-10-18T02:30:31;22.65;;;12.07;;
64598;SDS011;51008;51.504;11.548;2022-10-18T02:36:09;24.80;;;13.27;;
64598;SDS011;51008;51.504;11.548;2022-10-18T02:41:21;20.83;;;13.60;;
64598;SDS011;51008;51.504;11.548;2022-10-18T02:46:26;22.55;;;13.77;;
64598;SDS011;51008;51.504;11.548;2022-10-18T02:51:27;22.00;;;12.77;;
64598;SDS011;51008;51.504;11.548;2022-10-18T02:56:28;24.13;;;13.43;;
64598;SDS011;51008;51.504;11.548;2022-10-18T03:01:29;22.95;;;13.10;;
64598;SDS011;51008;51.504;11.548;2022-10-18T03:06:30;28.23;;;15.30;;
64598;SDS011;51008;51.504;11.548;2022-10-18T03:11:31;22.95;;;14.20;;
64598;SDS011;51008;51.504;11.548;2022-10-18T03:16:33;21.48;;;12.45;;
64598;SDS011;51008;51.504;11.548;2022-10-18T03:21:34;20.67;;;13.48;;
64598;SDS011;51008;51.504;11.548;2022-10-18T03:26:34;19.95;;;13.00;;
64598;SDS011;51008;51.504;11.548;2022-10-18T03:31:35;17.20;;;10.63;;
64598;SDS011;51008;51.504;11.548;2022-10-18T03:36:36;17.88;;;10.65;;
64598;SDS011;51008;51.504;11.548;2022-10-18T03:41:37;16.88;;;10.35;;
64598;SDS011;51008;51.504;11.548;2022-10-18T03:46:38;15.40;;;10.32;;
64598;SDS011;51008;51.504;11.548;2022-10-18T03:51:39;17.13;;;8.75;;
64598;SDS011;51008;51.504;11.548;2022-10-18T03:56:40;13.65;;;9.32;;
64598;SDS011;51008;51.504;11.548;2022-10-18T04:01:41;13.52;;;8.13;;
64598;SDS011;51008;51.504;11.548;2022-10-18T04:06:42;12.48;;;7.88;;
64598;SDS011;51008;51.504;11.548;2022-10-18T04:11:43;13.70;;;7.80;;
64598;SDS011;51008;51.504;11.548;2022-10-18T04:16:44;15.80;;;8.93;;
64598;SDS011;51008;51.504;11.548;2022-10-18T04:21:45;15.25;;;8.43;;
64598;SDS011;51008;51.504;11.548;2022-10-18T04:26:46;14.38;;;8.95;;
64598;SDS011;51008;51.504;11.548;2022-10-18T04:31:47;15.38;;;9.15;;
64598;SDS011;51008;51.504;11.548;2022-10-18T04:36:48;15.90;;;8.93;;
64598;SDS011;51008;51.504;11.548;2022-10-18T04:41:49;15.55;;;8.40;;
64598;SDS011;51008;51.504;11.548;2022-10-18T04:46:50;13.85;;;9.18;;
64598;SDS011;51008;51.504;11.548;2022-10-18T04:51:51;11.82;;;9.05;;
64598;SDS011;51008;51.504;11.548;2022-10-18T04:56:52;11.55;;;8.75;;
64598;SDS011;51008;51.504;11.548;2022-10-18T05:01:53;13.77;;;8.57;;
64598;SDS011;51008;51.504;11.548;2022-10-18T05:06:54;13.07;;;9.65;;
64598;SDS011;51008;51.504;11.548;2022-10-18T05:11:55;14.35;;;8.90;;
64598;SDS011;51008;51.504;11.548;2022-10-18T05:16:56;14.10;;;9.20;;
64598;SDS011;51008;51.504;11.548;2022-10-18T05:21:57;13.90;;;9.20;;
64598;SDS011;51008;51.504;11.548;2022-10-18T05:26:58;12.75;;;9.13;;
64598;SDS011;51008;51.504;11.548;2022-10-18T05:31:59;15.07;;;10.80;;
64598;SDS011;51008;51.504;11.548;2022-10-18T05:37:00;16.08;;;9.38;;
64598;SDS011;51008;51.504;11.548;2022-10-18T05:42:01;19.88;;;11.63;;
64598;SDS011;51008;51.504;11.548;2022-10-18T05:47:02;21.73;;;14.98;;
64598;SDS011;51008;51.504;11.548;2022-10-18T05:52:04;16.50;;;11.30;;
64598;SDS011;51008;51.504;11.548;2022-10-18T05:57:05;16.52;;;11.25;;
64598;SDS011;51008;51.504;11.548;2022-10-18T06:02:07;18.05;;;12.52;;
64598;SDS011;51008;51.504;11.548;2022-10-18T06:07:09;19.95;;;12.65;;
64598;SDS011;51008;51.504;11.548;2022-10-18T06:12:11;19.00;;;12.48;;
64598;SDS011;51008;51.504;11.548;2022-10-18T06:17:12;19.52;;;13.02;;
64598;SDS011;51008;51.504;11.548;2022-10-18T06:22:13;20.30;;;12.85;;
64598;SDS011;51008;51.504;11.548;2022-10-18T06:27:14;19.80;;;10.95;;
64598;SDS011;51008;51.504;11.548;2022-10-18T06:32:15;19.38;;;9.77;;
64598;SDS011;51008;51.504;11.548;2022-10-18T06:37:16;16.58;;;10.38;;
64598;SDS011;51008;51.504;11.548;2022-10-18T06:42:17;19.95;;;10.82;;
64598;SDS011;51008;51.504;11.548;2022-10-18T06:47:18;19.38;;;10.80;;
64598;SDS011;51008;51.504;11.548;2022-10-18T06:52:19;16.73;;;10.38;;
64598;SDS011;51008;51.504;11.548;2022-10-18T06:57:20;17.63;;;9.93;;
64598;SDS011;51008;51.504;11.548;2022-10-18T07:02:21;17.73;;;9.48;;
64598;SDS011;51008;51.504;11.548;2022-10-18T07:07:22;17.17;;;10.13;;
64598;SDS011;51008;51.504;11.548;2022-10-18T07:12:23;17.55;;;8.88;;
64598;SDS011;51008;51.504;11.548;2022-10-18T07:17:25;19.48;;;8.93;;
64598;SDS011;51008;51.504;11.548;2022-10-18T07:22:26;16.73;;;8.30;;
64598;SDS011;51008;51.504;11.548;2022-10-18T07:27:27;15.65;;;9.15;;
64598;SDS011;51008;51.504;11.548;2022-10-18T07:32:28;17.25;;;9.75;;
64598;SDS011;51008;51.504;11.548;2022-10-18T07:37:30;17.63;;;10.82;;
64598;SDS011;51008;51.504;11.548;2022-10-18T07:42:33;21.25;;;11.60;;
64598;SDS011;51008;51.504;11.548;2022-10-18T07:47:34;15.98;;;10.18;;
64598;SDS011;51008;51.504;11.548;2022-10-18T07:52:35;15.68;;;9.68;;
64598;SDS011;51008;51.504;11.548;2022-10-18T07:57:36;13.63;;;8.90;;
64598;SDS011;51008;51.504;11.548;2022-10-18T08:02:37;16.67;;;9.45;;
64598;SDS011;51008;51.504;11.548;2022-10-18T08:07:38;16.80;;;9.45;;
64598;SDS011;51008;51.504;11.548;2022-10-18T08:12:39;15.80;;;9.45;;
64598;SDS011;51008;51.504;11.548;2022-10-18T08:17:41;14.70;;;9.25;;
64598;SDS011;51008;51.504;11.548;2022-10-18T08:22:42;14.57;;;9.07;;
64598;SDS011;51008;51.504;11.548;2022-10-18T08:27:43;14.35;;;8.70;;
64598;SDS011;51008;51.504;11.548;2022-10-18T08:32:44;14.05;;;8.88;;
64598;SDS011;51008;51.504;11.548;2022-10-18T08:37:45;15.02;;;8.05;;
64598;SDS011;51008;51.504;11.548;2022-10-18T08:48:05;13.50;;;8.50;;
64598;SDS011;51008;51.504;11.548;2022-10-18T08:53:16;12.13;;;8.32;;
64598;SDS011;51008;51.504;11.548;2022-10-18T08:58:24;15.10;;;9.50;;
64598;SDS011;51008;51.504;11.548;2022-10-18T09:19:49;11.00;;;6.25;;
64598;SDS011;51008;51.504;11.548;2022-10-18T09:25:02;9.70;;;6.72;;
64598;SDS011;51008;51.504;11.548;2022-10-18T09:35:37;11.27;;;6.50;;
64598;SDS011;51008;51.504;11.548;2022-10-18T09:41:03;10.30;;;6.40;;
64598;SDS011;51008;51.504;11.548;2022-10-18T09:46:28;10.00;;;6.45;;
64598;SDS011;51008;51.504;11.548;2022-10-18T09:51:33;17.35;;;8.27;;
64598;SDS011;51008;51.504;11.548;2022-10-18T09:56:38;12.07;;;6.82;;
64598;SDS011;51008;51.504;11.548;2022-10-18T10:01:51;11.70;;;7.30;;
64598;SDS011;51008;51.504;11.548;2022-10-18T10:06:54;13.20;;;7.75;;
64598;SDS011;51008;51.504;11.548;2022-10-18T10:11:56;10.98;;;6.60;;
64598;SDS011;51008;51.504;11.548;2022-10-18T10:17:19;11.55;;;6.93;;
64598;SDS011;51008;51.504;11.548;2022-10-18T10:22:34;12.05;;;6.38;;
64598;SDS011;51008;51.504;11.548;2022-10-18T10:27:37;12.43;;;7.57;;
64598;SDS011;51008;51.504;11.548;2022-10-18T10:32:46;11.10;;;7.32;;
64598;SDS011;51008;51.504;11.548;2022-10-18T10:37:52;10.02;;;6.75;;
64598;SDS011;51008;51.504;11.548;2022-10-18T10:48:29;14.73;;;8.10;;
64598;SDS011;51008;51.504;11.548;2022-10-18T10:53:34;10.18;;;6.90;;
64598;SDS011;51008;51.504;11.548;2022-10-18T10:58:38;16.27;;;8.50;;
64598;SDS011;51008;51.504;11.548;2022-10-18T11:03:44;7.53;;;5.47;;
64598;SDS011;51008;51.504;11.548;2022-10-18T11:08:46;8.82;;;6.07;;
64598;SDS011;51008;51.504;11.548;2022-10-18T11:13:50;10.48;;;6.68;;
64598;SDS011;51008;51.504;11.548;2022-10-18T11:19:10;11.68;;;7.28;;
64598;SDS011;51008;51.504;11.548;2022-10-18T11:24:28;10.45;;;6.57;;
64598;SDS011;51008;51.504;11.548;2022-10-18T11:29:34;6.90;;;5.43;;
64598;SDS011;51008;51.504;11.548;2022-10-18T11:34:51;8.05;;;5.40;;
64598;SDS011;51008;51.504;11.548;2022-10-18T11:40:20;6.53;;;4.30;;
64598;SDS011;51008;51.504;11.548;2022-10-18T11:45:40;9.00;;;4.87;;
64598;SDS011;51008;51.504;11.548;2022-10-18T11:51:08;11.90;;;6.47;;
64598;SDS011;51008;51.504;11.548;2022-10-18T11:56:18;11.30;;;7.57;;
64598;SDS011;51008;51.504;11.548;2022-10-18T12:06:50;13.48;;;6.75;;
64598;SDS011;51008;51.504;11.548;2022-10-18T12:17:04;13.05;;;7.32;;
64598;SDS011;51008;51.504;11.548;2022-10-18T12:22:22;7.32;;;4.55;;
64598;SDS011;51008;51.504;11.548;2022-10-18T12:27:38;6.82;;;3.30;;
64598;SDS011;51008;51.504;11.548;2022-10-18T12:32:46;7.57;;;2.92;;
64598;SDS011;51008;51.504;11.548;2022-10-18T12:43:01;5.18;;;3.72;;
64598;SDS011;51008;51.504;11.548;2022-10-18T12:48:17;6.07;;;4.03;;
64598;SDS011;51008;51.504;11.548;2022-10-18T12:53:27;4.93;;;3.45;;
64598;SDS011;51008;51.504;11.548;2022-10-18T12:58:29;4.00;;;2.47;;
64598;SDS011;51008;51.504;11.548;2022-10-18T13:04:31;4.55;;;2.85;;
64598;SDS011;51008;51.504;11.548;2022-10-18T13:35:51;3.70;;;2.28;;
64598;SDS011;51008;51.504;11.548;2022-10-18T13:41:02;5.00;;;2.30;;
64598;SDS011;51008;51.504;11.548;2022-10-18T13:46:13;3.30;;;2.05;;
64598;SDS011;51008;51.504;11.548;2022-10-18T14:07:01;4.22;;;2.28;;
64598;SDS011;51008;51.504;11.548;2022-10-18T14:12:16;4.07;;;2.05;;
64598;SDS011;51008;51.504;11.548;2022-10-18T14:22:30;6.03;;;2.92;;
64598;SDS011;51008;51.504;11.548;2022-10-18T14:27:37;7.88;;;3.25;;
64598;SDS011;51008;51.504;11.548;2022-10-18T14:32:56;5.22;;;2.88;;
64598;SDS011;51008;51.504;11.548;2022-10-18T14:37:57;4.40;;;3.00;;
64598;SDS011;51008;51.504;11.548;2022-10-18T14:43:08;7.15;;;3.53;;
64598;SDS011;51008;51.504;11.548;2022-10-18T14:48:21;8.27;;;4.80;;
64598;SDS011;51008;51.504;11.548;2022-10-18T14:53:24;7.15;;;4.18;;
64598;SDS011;51008;51.504;11.548;2022-10-18T14:58:27;7.47;;;3.38;;
64598;SDS011;51008;51.504;11.548;2022-10-18T15:03:30;6.28;;;2.92;;
64598;SDS011;51008;51.504;11.548;2022-10-18T15:08:39;6.80;;;2.85;;
64598;SDS011;51008;51.504;11.548;2022-10-18T15:13:49;6.10;;;3.08;;
64598;SDS011;51008;51.504;11.548;2022-10-18T15:19:01;4.97;;;3.15;;
64598;SDS011;51008;51.504;11.548;2022-10-18T15:29:40;5.28;;;3.17;;
64598;SDS011;51008;51.504;11.548;2022-10-18T15:34:41;6.85;;;3.33;;
64598;SDS011;51008;51.504;11.548;2022-10-18T15:39:43;9.38;;;3.42;;
64598;SDS011;51008;51.504;11.548;2022-10-18T15:44:47;6.75;;;3.55;;
64598;SDS011;51008;51.504;11.548;2022-10-18T15:49:51;10.38;;;4.13;;
64598;SDS011;51008;51.504;11.548;2022-10-18T15:54:52;7.20;;;4.22;;
64598;SDS011;51008;51.504;11.548;2022-10-18T15:59:57;10.60;;;4.45;;
64598;SDS011;51008;51.504;11.548;2022-10-18T16:05:02;10.90;;;5.10;;
64598;SDS011;51008;51.504;11.548;2022-10-18T16:10:11;8.32;;;6.00;;
64598;SDS011;51008;51.504;11.548;2022-10-18T16:15:13;12.00;;;7.50;;
64598;SDS011;51008;51.504;11.548;2022-10-18T16:20:22;11.20;;;7.00;;
64598;SDS011;51008;51.504;11.548;2022-10-18T16:25:24;16.92;;;7.97;;
64598;SDS011;51008;51.504;11.548;2022-10-18T16:30:25;12.52;;;7.30;;
64598;SDS011;51008;51.504;11.548;2022-10-18T16:35:31;15.13;;;7.88;;
64598;SDS011;51008;51.504;11.548;2022-10-18T16:40:32;12.82;;;7.10;;
64598;SDS011;51008;51.504;11.548;2022-10-18T16:45:34;13.23;;;6.85;;
64598;SDS011;51008;51.504;11.548;2022-10-18T16:50:36;14.25;;;6.50;;
64598;SDS011;51008;51.504;11.548;2022-10-18T16:55:37;10.65;;;6.78;;
64598;SDS011;51008;51.504;11.548;2022-10-18T17:00:39;12.05;;;6.70;;
64598;SDS011;51008;51.504;11.548;2022-10-18T17:05:40;16.77;;;6.80;;
64598;SDS011;51008;51.504;11.548;2022-10-18T17:10:41;12.45;;;6.93;;
64598;SDS011;51008;51.504;11.548;2022-10-18T17:15:42;13.77;;;8.75;;
64598;SDS011;51008;51.504;11.548;2022-10-18T17:20:44;15.20;;;9.48;;
64598;SDS011;51008;51.504;11.548;2022-10-18T17:25:45;15.35;;;10.10;;
64598;SDS011;51008;51.504;11.548;2022-10-18T17:30:46;15.77;;;10.63;;
64598;SDS011;51008;51.504;11.548;2022-10-18T17:35:48;15.85;;;10.20;;
64598;SDS011;51008;51.504;11.548;2022-10-18T17:40:50;23.38;;;11.40;;
64598;SDS011;51008;51.504;11.548;2022-10-18T17:45:54;16.85;;;11.73;;
64598;SDS011;51008;51.504;11.548;2022-10-18T17:50:56;21.23;;;12.10;;
64598;SDS011;51008;51.504;11.548;2022-10-18T17:55:58;20.05;;;11.10;;
64598;SDS011;51008;51.504;11.548;2022-10-18T18:01:09;21.25;;;11.80;;
64598;SDS011;51008;51.504;11.548;2022-10-18T18:11:24;24.00;;;12.82;;
64598;SDS011;51008;51.504;11.548;2022-10-18T18:16:26;23.73;;;11.80;;
64598;SDS011;51008;51.504;11.548;2022-10-18T18:21:28;17.88;;;10.95;;
64598;SDS011;51008;51.504;11.548;2022-10-18T18:26:33;14.88;;;9.90;;
64598;SDS011;51008;51.504;11.548;2022-10-18T18:31:35;17.30;;;9.93;;
64598;SDS011;51008;51.504;11.548;2022-10-18T18:36:36;20.67;;;10.88;;
64598;SDS011;51008;51.504;11.548;2022-10-18T18:41:37;17.45;;;9.60;;
64598;SDS011;51008;51.504;11.548;2022-10-18T18:46:38;17.42;;;9.20;;
64598;SDS011;51008;51.504;11.548;2022-10-18T18:51:39;16.42;;;8.82;;
64598;SDS011;51008;51.504;11.548;2022-10-18T18:56:42;19.20;;;8.38;;
64598;SDS011;51008;51.504;11.548;2022-10-18T19:01:43;21.00;;;9.70;;
64598;SDS011;51008;51.504;11.548;2022-10-18T19:06:47;26.52;;;9.20;;
64598;SDS011;51008;51.504;11.548;2022-10-18T19:11:49;21.83;;;9.25;;
64598;SDS011;51008;51.504;11.548;2022-10-18T19:16:52;21.35;;;10.68;;
64598;SDS011;51008;51.504;11.548;2022-10-18T19:21:58;19.50;;;10.50;;
64598;SDS011;51008;51.504;11.548;2022-10-18T19:27:03;20.25;;;10.30;;
64598;SDS011;51008;51.504;11.548;2022-10-18T19:32:06;18.42;;;9.68;;
64598;SDS011;51008;51.504;11.548;2022-10-18T19:37:10;20.63;;;9.27;;
64598;SDS011;51008;51.504;11.548;2022-10-18T19:42:12;25.00;;;9.57;;
64598;SDS011;51008;51.504;11.548;2022-10-18T19:47:14;17.90;;;8.88;;
64598;SDS011;51008;51.504;11.548;2022-10-18T19:52:15;17.42;;;7.25;;
64598;SDS011;51008;51.504;11.548;2022-10-18T19:57:16;15.82;;;7.03;;
64598;SDS011;51008;51.504;11.548;2022-10-18T20:02:17;17.50;;;7.30;;
64598;SDS011;51008;51.504;11.548;2022-10-18T20:07:18;17.83;;;8.20;;
64598;SDS011;51008;51.504;11.548;2022-10-18T20:12:19;17.17;;;7.47;;
64598;SDS011;51008;51.504;11.548;2022-10-18T20:17:21;17.13;;;6.03;;
64598;SDS011;51008;51.504;11.548;2022-10-18T20:22:22;11.80;;;5.82;;
64598;SDS011;51008;51.504;11.548;2022-10-18T20:27:23;13.02;;;5.15;;
64598;SDS011;51008;51.504;11.548;2022-10-18T20:32:24;17.10;;;4.95;;
64598;SDS011;51008;51.504;11.548;2022-10-18T20:37:25;15.25;;;5.85;;
64598;SDS011;51008;51.504;11.548;2022-10-18T20:42:26;17.13;;;5.25;;
64598;SDS011;51008;51.504;11.548;2022-10-18T20:47:27;18.48;;;4.75;;
64598;SDS011;51008;51.504;11.548;2022-10-18T20:52:28;12.63;;;4.50;;
64598;SDS011;51008;51.504;11.548;2022-10-18T20:57:29;19.20;;;6.15;;
64598;SDS011;51008;51.504;11.548;2022-10-18T21:02:30;21.20;;;8.57;;
64598;SDS011;51008;51.504;11.548;2022-10-18T21:07:31;29.48;;;11.82;;
64598;SDS011;51008;51.504;11.548;2022-10-18T21:12:32;32.65;;;10.68;;
64598;SDS011;51008;51.504;11.548;2022-10-18T21:17:33;23.50;;;6.72;;
64598;SDS011;51008;51.504;11.548;2022-10-18T21:22:34;19.08;;;6.95;;
64598;SDS011;51008;51.504;11.548;2022-10-18T21:27:35;24.13;;;9.63;;
64598;SDS011;51008;51.504;11.548;2022-10-18T21:32:36;29.90;;;11.52;;
64598;SDS011;51008;51.504;11.548;2022-10-18T21:37:37;29.77;;;12.57;;
64598;SDS011;51008;51.504;11.548;2022-10-18T21:42:38;31.48;;;12.23;;
64598;SDS011;51008;51.504;11.548;2022-10-18T21:47:39;27.52;;;11.30;;
64598;SDS011;51008;51.504;11.548;2022-10-18T21:52:40;26.92;;;12.82;;
64598;SDS011;51008;51.504;11.548;2022-10-18T21:57:41;27.90;;;12.93;;
64598;SDS011;51008;51.504;11.548;2022-10-18T22:02:42;22.83;;;8.57;;
64598;SDS011;51008;51.504;11.548;2022-10-18T22:07:43;18.00;;;5.45;;
64598;SDS011;51008;51.504;11.548;2022-10-18T22:12:44;15.70;;;5.32;;
64598;SDS011;51008;51.504;11.548;2022-10-18T22:17:45;15.40;;;4.93;;
64598;SDS011;51008;51.504;11.548;2022-10-18T22:22:46;13.10;;;4.68;;
64598;SDS011;51008;51.504;11.548;2022-10-18T22:27:47;19.52;;;4.68;;
64598;SDS011;51008;51.504;11.548;2022-10-18T22:32:48;18.60;;;4.80;;
64598;SDS011;51008;51.504;11.548;2022-10-18T22:37:52;12.57;;;4.68;;
64598;SDS011;51008;51.504;11.548;2022-10-18T22:42:53;14.32;;;4.53;;
64598;SDS011;51008;51.504;11.548;2022-10-18T22:47:54;17.50;;;5.22;;
64598;SDS011;51008;51.504;11.548;2022-10-18T22:52:55;10.20;;;4.53;;
64598;SDS011;51008;51.504;11.548;2022-10-18T22:57:56;16.83;;;5.18;;
64598;SDS011;51008;51.504;11.548;2022-10-18T23:02:57;28.13;;;5.90;;
64598;SDS011;51008;51.504;11.548;2022-10-18T23:07:58;20.08;;;6.55;;
64598;SDS011;51008;51.504;11.548;2022-10-18T23:12:59;19.38;;;6.25;;
64598;SDS011;51008;51.504;11.548;2022-10-18T23:18:00;13.85;;;5.32;;
64598;SDS011;51008;51.504;11.548;2022-10-18T23:23:01;15.27;;;6.25;;
64598;SDS011;51008;51.504;11.548;2022-10-18T23:28:03;15.15;;;5.93;;
64598;SDS011;51008;51.504;11.548;2022-10-18T23:33:04;15.52;;;5.25;;
64598;SDS011;51008;51.504;11.548;2022-10-18T23:38:05;19.50;;;5.05;;
64598;SDS011;51008;51.504;11.548;2022-10-18T23:43:06;15.65;;;4.70;;
64598;SDS011;51008;51.504;11.548;2022-10-18T23:48:07;18.02;;;5.90;;
64598;SDS011;51008;51.504;11.548;2022-10-18T23:53:09;23.55;;;4.95;;
64598;SDS011;51008;51.504;11.548;2022-10-18T23:58:10;15.80;;;4.75;;
